sensor_id;sensor_type;location;lat;lon;timestamp;P1;durP1;ratioP1;P2;durP2;ratioP2
29218;SDS011;16421;50.202;7.852;2024-02-15T00:01:50;2.15;;;1.00;;
29218;SDS011;16421;50.202;7.852;2024-02-15T00:06:53;1.08;;;0.90;;
29218;SDS011;16421;50.202;7.852;2024-02-15T00:11:58;1.70;;;0.85;;
29218;SDS011;16421;50.202;7.852;2024-02-15T00:17:02;1.15;;;0.80;;
29218;SDS011;16421;50.202;7.852;2024-02-15T00:22:05;2.20;;;1.10;;
29218;SDS011;16421;50.202;7.852;2024-02-15T00:27:10;3.22;;;1.63;;
29218;SDS011;16421;50.202;7.852;2024-02-15T00:32:14;2.67;;;1.20;;
29218;SDS011;16421;50.202;7.852;2024-02-15T00:37:17;2.22;;;1.10;;
29218;SDS011;16421;50.202;7.852;2024-02-15T00:42:22;1.75;;;1.00;;
29218;SDS011;16421;50.202;7.852;2024-02-15T00:47:25;2.53;;;1.30;;
29218;SDS011;16421;50.202;7.852;2024-02-15T00:52:29;3.45;;;1.73;;
29218;SDS011;16421;50.202;7.852;2024-02-15T00:57:34;2.55;;;1.52;;
29218;SDS011;16421;50.202;7.852;2024-02-15T01:02:38;1.70;;;1.60;;
29218;SDS011;16421;50.202;7.852;2024-02-15T01:07:41;1.67;;;1.17;;
29218;SDS011;16421;50.202;7.852;2024-02-15T01:12:46;1.75;;;1.02;;
29218;SDS011;16421;50.202;7.852;2024-02-15T01:17:50;1.98;;;0.73;;
29218;SDS011;16421;50.202;7.852;2024-02-15T01:22:53;2.38;;;0.80;;
29218;SDS011;16421;50.202;7.852;2024-02-15T01:27:58;0.80;;;0.80;;
29218;SDS011;16421;50.202;7.852;2024-02-15T01:33:03;1.20;;;0.82;;
29218;SDS011;16421;50.202;7.852;2024-02-15T01:38:06;1.80;;;0.60;;
29218;SDS011;16421;50.202;7.852;2024-02-15T01:43:11;1.10;;;0.60;;
29218;SDS011;16421;50.202;7.852;2024-02-15T01:48:15;1.50;;;0.80;;
29218;SDS011;16421;50.202;7.852;2024-02-15T01:53:19;0.85;;;0.70;;
29218;SDS011;16421;50.202;7.852;2024-02-15T01:58:24;1.02;;;0.80;;
29218;SDS011;16421;50.202;7.852;2024-02-15T02:03:31;1.25;;;0.88;;
29218;SDS011;16421;50.202;7.852;2024-02-15T02:08:34;1.60;;;1.15;;
29218;SDS011;16421;50.202;7.852;2024-02-15T02:13:39;2.88;;;1.00;;
29218;SDS011;16421;50.202;7.852;2024-02-15T02:18:43;2.03;;;0.98;;
29218;SDS011;16421;50.202;7.852;2024-02-15T02:23:47;1.85;;;1.08;;
29218;SDS011;16421;50.202;7.852;2024-02-15T02:28:56;0.80;;;0.70;;
29218;SDS011;16421;50.202;7.852;2024-02-15T02:39:04;1.58;;;0.88;;
29218;SDS011;16421;50.202;7.852;2024-02-15T02:44:10;0.73;;;0.60;;
29218;SDS011;16421;50.202;7.852;2024-02-15T02:49:13;2.55;;;0.60;;
29218;SDS011;16421;50.202;7.852;2024-02-15T02:54:16;1.65;;;0.77;;
29218;SDS011;16421;50.202;7.852;2024-02-15T02:59:21;3.13;;;0.88;;
29218;SDS011;16421;50.202;7.852;2024-02-15T03:04:25;1.20;;;0.68;;
29218;SDS011;16421;50.202;7.852;2024-02-15T03:09:29;1.25;;;0.77;;
29218;SDS011;16421;50.202;7.852;2024-02-15T03:14:34;1.00;;;0.73;;
29218;SDS011;16421;50.202;7.852;2024-02-15T03:19:38;1.10;;;0.70;;
29218;SDS011;16421;50.202;7.852;2024-02-15T03:24:42;1.23;;;0.77;;
29218;SDS011;16421;50.202;7.852;2024-02-15T03:29:47;0.98;;;0.80;;
29218;SDS011;16421;50.202;7.852;2024-02-15T03:34:50;0.93;;;0.70;;
29218;SDS011;16421;50.202;7.852;2024-02-15T03:39:55;1.55;;;1.00;;
29218;SDS011;16421;50.202;7.852;2024-02-15T03:45:00;2.42;;;1.00;;
29218;SDS011;16421;50.202;7.852;2024-02-15T03:50:04;1.85;;;0.90;;
29218;SDS011;16421;50.202;7.852;2024-02-15T03:55:11;2.30;;;1.10;;
29218;SDS011;16421;50.202;7.852;2024-02-15T04:00:16;2.17;;;1.10;;
29218;SDS011;16421;50.202;7.852;2024-02-15T04:05:22;1.88;;;0.90;;
29218;SDS011;16421;50.202;7.852;2024-02-15T04:10:25;2.17;;;0.88;;
29218;SDS011;16421;50.202;7.852;2024-02-15T04:15:30;2.78;;;1.02;;
29218;SDS011;16421;50.202;7.852;2024-02-15T04:20:35;2.88;;;1.17;;
29218;SDS011;16421;50.202;7.852;2024-02-15T04:25:38;2.13;;;0.80;;
29218;SDS011;16421;50.202;7.852;2024-02-15T04:30:43;2.63;;;0.90;;
29218;SDS011;16421;50.202;7.852;2024-02-15T04:35:48;3.60;;;0.80;;
29218;SDS011;16421;50.202;7.852;2024-02-15T04:40:52;2.13;;;0.85;;
29218;SDS011;16421;50.202;7.852;2024-02-15T04:45:57;2.42;;;1.05;;
29218;SDS011;16421;50.202;7.852;2024-02-15T04:51:01;2.35;;;0.90;;
29218;SDS011;16421;50.202;7.852;2024-02-15T04:56:05;2.92;;;0.90;;
29218;SDS011;16421;50.202;7.852;2024-02-15T05:01:16;1.83;;;0.88;;
29218;SDS011;16421;50.202;7.852;2024-02-15T05:06:19;1.70;;;0.90;;
29218;SDS011;16421;50.202;7.852;2024-02-15T05:11:23;1.48;;;0.85;;
29218;SDS011;16421;50.202;7.852;2024-02-15T05:16:28;2.08;;;1.08;;
29218;SDS011;16421;50.202;7.852;2024-02-15T05:21:32;1.63;;;0.83;;
29218;SDS011;16421;50.202;7.852;2024-02-15T05:26:35;2.50;;;1.02;;
29218;SDS011;16421;50.202;7.852;2024-02-15T05:31:40;3.92;;;1.13;;
29218;SDS011;16421;50.202;7.852;2024-02-15T05:36:43;2.42;;;1.10;;
29218;SDS011;16421;50.202;7.852;2024-02-15T05:41:46;1.38;;;0.93;;
29218;SDS011;16421;50.202;7.852;2024-02-15T05:46:51;0.93;;;0.70;;
29218;SDS011;16421;50.202;7.852;2024-02-15T05:51:54;2.42;;;0.98;;
29218;SDS011;16421;50.202;7.852;2024-02-15T05:56:58;1.25;;;0.80;;
29218;SDS011;16421;50.202;7.852;2024-02-15T06:02:04;1.77;;;0.70;;
29218;SDS011;16421;50.202;7.852;2024-02-15T06:07:09;1.65;;;0.80;;
29218;SDS011;16421;50.202;7.852;2024-02-15T06:12:12;2.38;;;0.82;;
29218;SDS011;16421;50.202;7.852;2024-02-15T06:17:17;1.67;;;1.30;;
29218;SDS011;16421;50.202;7.852;2024-02-15T06:22:20;2.25;;;0.90;;
29218;SDS011;16421;50.202;7.852;2024-02-15T06:27:23;3.25;;;0.93;;
29218;SDS011;16421;50.202;7.852;2024-02-15T06:32:28;4.38;;;1.00;;
29218;SDS011;16421;50.202;7.852;2024-02-15T06:37:49;2.67;;;1.05;;
29218;SDS011;16421;50.202;7.852;2024-02-15T06:43:10;1.08;;;0.73;;
29218;SDS011;16421;50.202;7.852;2024-02-15T06:48:15;1.40;;;0.80;;
29218;SDS011;16421;50.202;7.852;2024-02-15T06:53:18;2.53;;;1.50;;
29218;SDS011;16421;50.202;7.852;2024-02-15T06:58:21;2.90;;;1.30;;
29218;SDS011;16421;50.202;7.852;2024-02-15T07:03:27;4.72;;;1.38;;
29218;SDS011;16421;50.202;7.852;2024-02-15T07:08:31;2.22;;;1.15;;
29218;SDS011;16421;50.202;7.852;2024-02-15T07:13:34;2.17;;;1.25;;
29218;SDS011;16421;50.202;7.852;2024-02-15T07:18:39;1.92;;;1.40;;
29218;SDS011;16421;50.202;7.852;2024-02-15T07:23:43;2.35;;;1.60;;
29218;SDS011;16421;50.202;7.852;2024-02-15T07:28:47;1.92;;;1.38;;
29218;SDS011;16421;50.202;7.852;2024-02-15T07:33:53;3.03;;;1.95;;
29218;SDS011;16421;50.202;7.852;2024-02-15T07:38:56;2.08;;;1.45;;
29218;SDS011;16421;50.202;7.852;2024-02-15T07:44:02;6.25;;;2.40;;
29218;SDS011;16421;50.202;7.852;2024-02-15T07:49:07;3.30;;;1.85;;
29218;SDS011;16421;50.202;7.852;2024-02-15T07:54:10;2.75;;;1.73;;
29218;SDS011;16421;50.202;7.852;2024-02-15T07:59:14;4.28;;;1.85;;
29218;SDS011;16421;50.202;7.852;2024-02-15T08:04:19;2.47;;;1.70;;
29218;SDS011;16421;50.202;7.852;2024-02-15T08:09:22;2.17;;;1.65;;
29218;SDS011;16421;50.202;7.852;2024-02-15T08:14:26;2.75;;;1.70;;
29218;SDS011;16421;50.202;7.852;2024-02-15T08:19:31;2.90;;;1.75;;
29218;SDS011;16421;50.202;7.852;2024-02-15T08:24:34;3.22;;;1.73;;
29218;SDS011;16421;50.202;7.852;2024-02-15T08:29:38;3.22;;;1.75;;
29218;SDS011;16421;50.202;7.852;2024-02-15T08:34:42;1.88;;;1.52;;
29218;SDS011;16421;50.202;7.852;2024-02-15T08:39:45;3.38;;;1.70;;
29218;SDS011;16421;50.202;7.852;2024-02-15T08:44:49;3.25;;;1.42;;
29218;SDS011;16421;50.202;7.852;2024-02-15T08:49:54;2.97;;;1.50;;
29218;SDS011;16421;50.202;7.852;2024-02-15T08:54:57;4.03;;;2.17;;
29218;SDS011;16421;50.202;7.852;2024-02-15T09:00:02;1.90;;;1.27;;
29218;SDS011;16421;50.202;7.852;2024-02-15T09:05:12;3.80;;;2.15;;
29218;SDS011;16421;50.202;7.852;2024-02-15T09:10:16;1.92;;;1.63;;
29218;SDS011;16421;50.202;7.852;2024-02-15T09:15:19;2.97;;;1.50;;
29218;SDS011;16421;50.202;7.852;2024-02-15T09:20:25;1.90;;;1.23;;
29218;SDS011;16421;50.202;7.852;2024-02-15T09:25:29;2.78;;;1.20;;
29218;SDS011;16421;50.202;7.852;2024-02-15T09:30:32;2.53;;;1.48;;
29218;SDS011;16421;50.202;7.852;2024-02-15T09:35:38;2.40;;;1.60;;
29218;SDS011;16421;50.202;7.852;2024-02-15T09:40:41;2.17;;;1.55;;
29218;SDS011;16421;50.202;7.852;2024-02-15T09:45:46;3.90;;;1.40;;
29218;SDS011;16421;50.202;7.852;2024-02-15T09:50:51;2.30;;;1.40;;
29218;SDS011;16421;50.202;7.852;2024-02-15T09:55:56;1.40;;;0.75;;
29218;SDS011;16421;50.202;7.852;2024-02-15T10:01:05;3.00;;;1.02;;
29218;SDS011;16421;50.202;7.852;2024-02-15T10:06:12;2.17;;;1.35;;
29218;SDS011;16421;50.202;7.852;2024-02-15T10:11:16;1.45;;;0.93;;
29218;SDS011;16421;50.202;7.852;2024-02-15T10:16:21;3.47;;;1.10;;
29218;SDS011;16421;50.202;7.852;2024-02-15T10:21:28;1.27;;;0.93;;
29218;SDS011;16421;50.202;7.852;2024-02-15T10:26:32;2.65;;;1.10;;
29218;SDS011;16421;50.202;7.852;2024-02-15T10:31:37;2.42;;;1.45;;
29218;SDS011;16421;50.202;7.852;2024-02-15T10:36:43;3.00;;;1.27;;
29218;SDS011;16421;50.202;7.852;2024-02-15T10:41:47;3.15;;;1.15;;
29218;SDS011;16421;50.202;7.852;2024-02-15T10:46:52;3.30;;;1.10;;
29218;SDS011;16421;50.202;7.852;2024-02-15T10:51:57;2.08;;;1.20;;
29218;SDS011;16421;50.202;7.852;2024-02-15T10:57:05;1.15;;;0.90;;
29218;SDS011;16421;50.202;7.852;2024-02-15T11:02:15;2.35;;;1.10;;
29218;SDS011;16421;50.202;7.852;2024-02-15T11:07:32;1.52;;;0.80;;
29218;SDS011;16421;50.202;7.852;2024-02-15T11:12:35;3.38;;;1.00;;
29218;SDS011;16421;50.202;7.852;2024-02-15T11:17:44;3.50;;;1.20;;
29218;SDS011;16421;50.202;7.852;2024-02-15T11:22:57;5.33;;;1.50;;
29218;SDS011;16421;50.202;7.852;2024-02-15T11:33:38;1.17;;;0.80;;
29218;SDS011;16421;50.202;7.852;2024-02-15T11:38:42;3.40;;;1.00;;
29218;SDS011;16421;50.202;7.852;2024-02-15T11:43:49;1.25;;;0.80;;
29218;SDS011;16421;50.202;7.852;2024-02-15T11:49:00;2.63;;;1.00;;
29218;SDS011;16421;50.202;7.852;2024-02-15T11:54:07;2.58;;;1.02;;
29218;SDS011;16421;50.202;7.852;2024-02-15T11:59:12;1.92;;;1.08;;
29218;SDS011;16421;50.202;7.852;2024-02-15T12:04:30;2.30;;;1.02;;
29218;SDS011;16421;50.202;7.852;2024-02-15T12:09:52;1.10;;;0.50;;
29218;SDS011;16421;50.202;7.852;2024-02-15T12:15:18;1.33;;;0.60;;
29218;SDS011;16421;50.202;7.852;2024-02-15T12:20:39;1.08;;;0.60;;
29218;SDS011;16421;50.202;7.852;2024-02-15T12:25:43;2.20;;;1.05;;
29218;SDS011;16421;50.202;7.852;2024-02-15T12:30:54;1.70;;;0.75;;
29218;SDS011;16421;50.202;7.852;2024-02-15T12:36:03;1.73;;;0.60;;
29218;SDS011;16421;50.202;7.852;2024-02-15T12:41:18;1.38;;;0.60;;
29218;SDS011;16421;50.202;7.852;2024-02-15T12:46:21;1.70;;;0.65;;
29218;SDS011;16421;50.202;7.852;2024-02-15T12:51:25;1.35;;;0.70;;
29218;SDS011;16421;50.202;7.852;2024-02-15T12:56:36;2.03;;;0.65;;
29218;SDS011;16421;50.202;7.852;2024-02-15T13:06:44;0.63;;;0.40;;
29218;SDS011;16421;50.202;7.852;2024-02-15T13:11:49;1.83;;;0.60;;
29218;SDS011;16421;50.202;7.852;2024-02-15T13:16:54;2.03;;;0.75;;
29218;SDS011;16421;50.202;7.852;2024-02-15T13:21:59;2.08;;;0.70;;
29218;SDS011;16421;50.202;7.852;2024-02-15T13:27:03;1.10;;;0.70;;
29218;SDS011;16421;50.202;7.852;2024-02-15T13:32:07;1.20;;;0.93;;
29218;SDS011;16421;50.202;7.852;2024-02-15T13:37:13;4.75;;;1.00;;
29218;SDS011;16421;50.202;7.852;2024-02-15T13:42:20;2.93;;;1.13;;
29218;SDS011;16421;50.202;7.852;2024-02-15T13:47:23;0.90;;;0.70;;
29218;SDS011;16421;50.202;7.852;2024-02-15T13:52:26;2.38;;;0.88;;
29218;SDS011;16421;50.202;7.852;2024-02-15T13:57:31;2.95;;;1.27;;
29218;SDS011;16421;50.202;7.852;2024-02-15T14:02:34;1.75;;;0.90;;
29218;SDS011;16421;50.202;7.852;2024-02-15T14:07:37;2.58;;;1.10;;
29218;SDS011;16421;50.202;7.852;2024-02-15T14:12:42;3.08;;;1.10;;
29218;SDS011;16421;50.202;7.852;2024-02-15T14:17:46;1.27;;;0.73;;
29218;SDS011;16421;50.202;7.852;2024-02-15T14:22:50;2.10;;;1.00;;
29218;SDS011;16421;50.202;7.852;2024-02-15T14:27:58;1.27;;;0.70;;
29218;SDS011;16421;50.202;7.852;2024-02-15T14:33:02;1.60;;;0.60;;
29218;SDS011;16421;50.202;7.852;2024-02-15T14:38:06;1.63;;;0.80;;
29218;SDS011;16421;50.202;7.852;2024-02-15T14:43:13;2.55;;;1.15;;
29218;SDS011;16421;50.202;7.852;2024-02-15T14:48:19;4.00;;;1.67;;
29218;SDS011;16421;50.202;7.852;2024-02-15T14:53:25;3.17;;;1.27;;
29218;SDS011;16421;50.202;7.852;2024-02-15T14:58:30;2.33;;;1.20;;
29218;SDS011;16421;50.202;7.852;2024-02-15T15:03:33;3.45;;;1.30;;
29218;SDS011;16421;50.202;7.852;2024-02-15T15:08:38;3.35;;;1.40;;
29218;SDS011;16421;50.202;7.852;2024-02-15T15:14:01;2.85;;;1.75;;
29218;SDS011;16421;50.202;7.852;2024-02-15T15:19:05;3.97;;;1.80;;
29218;SDS011;16421;50.202;7.852;2024-02-15T15:24:09;1.98;;;1.10;;
29218;SDS011;16421;50.202;7.852;2024-02-15T15:29:13;2.22;;;1.25;;
29218;SDS011;16421;50.202;7.852;2024-02-15T15:34:17;2.90;;;1.10;;
29218;SDS011;16421;50.202;7.852;2024-02-15T15:39:21;1.83;;;0.82;;
29218;SDS011;16421;50.202;7.852;2024-02-15T15:44:28;1.75;;;0.90;;
29218;SDS011;16421;50.202;7.852;2024-02-15T15:49:32;3.53;;;1.48;;
29218;SDS011;16421;50.202;7.852;2024-02-15T15:54:36;4.97;;;1.20;;
29218;SDS011;16421;50.202;7.852;2024-02-15T15:59:44;3.00;;;1.17;;
29218;SDS011;16421;50.202;7.852;2024-02-15T16:04:47;2.33;;;1.08;;
29218;SDS011;16421;50.202;7.852;2024-02-15T16:09:51;1.00;;;0.82;;
29218;SDS011;16421;50.202;7.852;2024-02-15T16:14:57;1.60;;;0.80;;
29218;SDS011;16421;50.202;7.852;2024-02-15T16:20:01;1.90;;;0.60;;
29218;SDS011;16421;50.202;7.852;2024-02-15T16:25:06;2.97;;;1.00;;
29218;SDS011;16421;50.202;7.852;2024-02-15T16:30:13;2.28;;;1.23;;
29218;SDS011;16421;50.202;7.852;2024-02-15T16:35:16;2.22;;;0.90;;
29218;SDS011;16421;50.202;7.852;2024-02-15T16:40:20;1.90;;;1.00;;
29218;SDS011;16421;50.202;7.852;2024-02-15T16:45:25;0.77;;;0.60;;
29218;SDS011;16421;50.202;7.852;2024-02-15T16:50:29;2.85;;;0.73;;
29218;SDS011;16421;50.202;7.852;2024-02-15T16:55:32;1.30;;;0.90;;
29218;SDS011;16421;50.202;7.852;2024-02-15T17:00:38;1.90;;;0.77;;
29218;SDS011;16421;50.202;7.852;2024-02-15T17:05:41;3.47;;;1.50;;
29218;SDS011;16421;50.202;7.852;2024-02-15T17:10:44;2.70;;;1.23;;
29218;SDS011;16421;50.202;7.852;2024-02-15T17:15:49;3.17;;;1.70;;
29218;SDS011;16421;50.202;7.852;2024-02-15T17:20:52;3.97;;;1.40;;
29218;SDS011;16421;50.202;7.852;2024-02-15T17:25:55;3.28;;;1.25;;
29218;SDS011;16421;50.202;7.852;2024-02-15T17:31:00;2.22;;;1.30;;
29218;SDS011;16421;50.202;7.852;2024-02-15T17:36:08;4.57;;;1.95;;
29218;SDS011;16421;50.202;7.852;2024-02-15T17:41:12;3.80;;;1.88;;
29218;SDS011;16421;50.202;7.852;2024-02-15T17:46:16;3.03;;;1.70;;
29218;SDS011;16421;50.202;7.852;2024-02-15T17:51:20;2.63;;;1.20;;
29218;SDS011;16421;50.202;7.852;2024-02-15T17:56:23;1.38;;;0.80;;
29218;SDS011;16421;50.202;7.852;2024-02-15T18:01:28;1.10;;;0.70;;
29218;SDS011;16421;50.202;7.852;2024-02-15T18:06:32;3.75;;;1.15;;
29218;SDS011;16421;50.202;7.852;2024-02-15T18:11:36;1.05;;;0.95;;
29218;SDS011;16421;50.202;7.852;2024-02-15T18:16:40;2.65;;;1.27;;
29218;SDS011;16421;50.202;7.852;2024-02-15T18:21:49;2.17;;;1.30;;
29218;SDS011;16421;50.202;7.852;2024-02-15T18:26:52;3.20;;;1.15;;
29218;SDS011;16421;50.202;7.852;2024-02-15T18:31:57;2.45;;;1.40;;
29218;SDS011;16421;50.202;7.852;2024-02-15T18:37:01;2.83;;;1.40;;
29218;SDS011;16421;50.202;7.852;2024-02-15T18:42:04;2.22;;;1.02;;
29218;SDS011;16421;50.202;7.852;2024-02-15T18:47:09;3.38;;;1.02;;
29218;SDS011;16421;50.202;7.852;2024-02-15T18:52:12;3.08;;;1.52;;
29218;SDS011;16421;50.202;7.852;2024-02-15T18:57:16;3.05;;;1.67;;
29218;SDS011;16421;50.202;7.852;2024-02-15T19:02:22;2.55;;;1.30;;
29218;SDS011;16421;50.202;7.852;2024-02-15T19:07:27;2.53;;;1.35;;
29218;SDS011;16421;50.202;7.852;2024-02-15T19:12:31;1.98;;;1.20;;
29218;SDS011;16421;50.202;7.852;2024-02-15T19:17:36;2.13;;;1.20;;
29218;SDS011;16421;50.202;7.852;2024-02-15T19:22:40;2.95;;;1.40;;
29218;SDS011;16421;50.202;7.852;2024-02-15T19:27:45;2.03;;;0.90;;
29218;SDS011;16421;50.202;7.852;2024-02-15T19:32:50;1.88;;;1.05;;
29218;SDS011;16421;50.202;7.852;2024-02-15T19:37:55;2.03;;;0.70;;
29218;SDS011;16421;50.202;7.852;2024-02-15T19:42:58;1.23;;;0.80;;
29218;SDS011;16421;50.202;7.852;2024-02-15T19:48:03;1.98;;;1.15;;
29218;SDS011;16421;50.202;7.852;2024-02-15T19:53:10;2.88;;;1.10;;
29218;SDS011;16421;50.202;7.852;2024-02-15T19:58:15;2.47;;;1.30;;
29218;SDS011;16421;50.202;7.852;2024-02-15T20:03:23;4.13;;;1.50;;
29218;SDS011;16421;50.202;7.852;2024-02-15T20:08:29;4.07;;;1.63;;
29218;SDS011;16421;50.202;7.852;2024-02-15T20:13:32;2.90;;;1.45;;
29218;SDS011;16421;50.202;7.852;2024-02-15T20:18:37;3.78;;;1.60;;
29218;SDS011;16421;50.202;7.852;2024-02-15T20:23:41;4.10;;;1.50;;
29218;SDS011;16421;50.202;7.852;2024-02-15T20:28:47;4.27;;;1.20;;
29218;SDS011;16421;50.202;7.852;2024-02-15T20:33:52;3.17;;;1.20;;
29218;SDS011;16421;50.202;7.852;2024-02-15T20:38:56;1.95;;;0.90;;
29218;SDS011;16421;50.202;7.852;2024-02-15T20:44:00;2.40;;;0.95;;
29218;SDS011;16421;50.202;7.852;2024-02-15T20:49:05;1.75;;;0.90;;
29218;SDS011;16421;50.202;7.852;2024-02-15T20:54:08;1.77;;;1.05;;
29218;SDS011;16421;50.202;7.852;2024-02-15T20:59:12;1.92;;;1.00;;
29218;SDS011;16421;50.202;7.852;2024-02-15T21:04:17;1.63;;;1.02;;
29218;SDS011;16421;50.202;7.852;2024-02-15T21:09:20;1.67;;;0.88;;
29218;SDS011;16421;50.202;7.852;2024-02-15T21:14:24;5.90;;;1.30;;
29218;SDS011;16421;50.202;7.852;2024-02-15T21:19:29;3.90;;;1.40;;
29218;SDS011;16421;50.202;7.852;2024-02-15T21:24:32;3.40;;;1.60;;
29218;SDS011;16421;50.202;7.852;2024-02-15T21:29:39;4.35;;;1.55;;
29218;SDS011;16421;50.202;7.852;2024-02-15T21:34:44;3.65;;;1.10;;
29218;SDS011;16421;50.202;7.852;2024-02-15T21:39:47;1.13;;;1.00;;
29218;SDS011;16421;50.202;7.852;2024-02-15T21:44:51;4.30;;;1.30;;
29218;SDS011;16421;50.202;7.852;2024-02-15T21:49:57;1.23;;;1.00;;
29218;SDS011;16421;50.202;7.852;2024-02-15T22:00:06;1.77;;;1.13;;
29218;SDS011;16421;50.202;7.852;2024-02-15T22:05:13;2.92;;;1.20;;
29218;SDS011;16421;50.202;7.852;2024-02-15T22:10:16;4.65;;;2.75;;
29218;SDS011;16421;50.202;7.852;2024-02-15T22:15:19;9.43;;;5.75;;
29218;SDS011;16421;50.202;7.852;2024-02-15T22:20:24;7.25;;;4.00;;
29218;SDS011;16421;50.202;7.852;2024-02-15T22:25:27;5.13;;;2.95;;
29218;SDS011;16421;50.202;7.852;2024-02-15T22:30:31;4.35;;;2.70;;
29218;SDS011;16421;50.202;7.852;2024-02-15T22:35:36;4.82;;;2.70;;
29218;SDS011;16421;50.202;7.852;2024-02-15T22:40:39;2.20;;;1.95;;
29218;SDS011;16421;50.202;7.852;2024-02-15T22:45:43;3.50;;;2.22;;
29218;SDS011;16421;50.202;7.852;2024-02-15T22:50:49;5.45;;;2.30;;
29218;SDS011;16421;50.202;7.852;2024-02-15T22:55:52;2.10;;;1.50;;
29218;SDS011;16421;50.202;7.852;2024-02-15T23:00:57;1.73;;;1.15;;
29218;SDS011;16421;50.202;7.852;2024-02-15T23:06:01;2.65;;;1.08;;
29218;SDS011;16421;50.202;7.852;2024-02-15T23:11:06;2.38;;;1.00;;
29218;SDS011;16421;50.202;7.852;2024-02-15T23:16:10;1.58;;;1.08;;
29218;SDS011;16421;50.202;7.852;2024-02-15T23:21:14;1.08;;;0.75;;
29218;SDS011;16421;50.202;7.852;2024-02-15T23:26:18;1.10;;;0.88;;
29218;SDS011;16421;50.202;7.852;2024-02-15T23:31:21;1.30;;;0.98;;
29218;SDS011;16421;50.202;7.852;2024-02-15T23:36:26;1.42;;;1.20;;
29218;SDS011;16421;50.202;7.852;2024-02-15T23:41:46;2.08;;;1.08;;
29218;SDS011;16421;50.202;7.852;2024-02-15T23:46:50;1.98;;;1.33;;
29218;SDS011;16421;50.202;7.852;2024-02-15T23:51:54;1.27;;;0.88;;
29218;SDS011;16421;50.202;7.852;2024-02-15T23:56:57;1.77;;;1.02;;
